createdAt,value
2023-04-14T00:01:52.458Z,66.76
2023-04-14T00:04:21.075Z,67.23
2023-04-14T00:06:49.133Z,66.98
2023-04-14T00:09:16.801Z,66.36
2023-04-14T00:11:44.740Z,67.07
2023-04-14T00:14:12.292Z,66.86
2023-04-14T00:16:43.002Z,66.64
2023-04-14T00:19:11.190Z,66.50
2023-04-14T00:21:38.773Z,66.65
2023-04-14T00:24:06.442Z,66.63
2023-04-14T00:26:34.199Z,66.54
2023-04-14T00:29:02.290Z,66.83
2023-04-14T00:31:30.524Z,66.45
2023-04-14T00:33:58.177Z,67.03
2023-04-14T00:36:25.894Z,66.41
2023-04-14T00:38:53.579Z,66.37
2023-04-14T00:41:21.207Z,67.08
2023-04-14T00:43:49.161Z,66.96
2023-04-14T00:46:17.547Z,67.09
2023-04-14T00:48:45.194Z,67.70
2023-04-14T00:51:12.759Z,67.93
2023-04-14T00:53:40.717Z,67.81
2023-04-14T00:56:09.143Z,67.52
2023-04-14T00:58:36.774Z,68.10
2023-04-14T01:01:04.454Z,68.10
2023-04-14T01:03:32.281Z,68.17
2023-04-14T01:06:00.073Z,67.21
2023-04-14T01:08:27.813Z,67.60
2023-04-14T01:10:55.472Z,67.72
2023-04-14T01:13:23.068Z,67.30
2023-04-14T01:15:50.785Z,67.23
2023-04-14T01:18:20.092Z,67.34
2023-04-14T01:20:48.093Z,66.78
2023-04-14T01:23:15.719Z,66.60
2023-04-14T01:25:43.286Z,67.10
2023-04-14T01:28:10.938Z,66.60
2023-04-14T01:30:38.911Z,66.89
2023-04-14T01:33:06.834Z,66.21
2023-04-14T01:35:34.417Z,66.94
2023-04-14T01:38:02.105Z,66.91
2023-04-14T01:40:30.134Z,66.55
2023-04-14T01:42:57.862Z,67.33
2023-04-14T01:45:25.589Z,66.76
2023-04-14T01:47:53.261Z,67.19
2023-04-14T01:50:20.958Z,66.76
2023-04-14T01:52:48.935Z,67.24
2023-04-14T01:55:16.555Z,67.45
2023-04-14T01:57:44.548Z,66.91
2023-04-14T02:00:12.172Z,67.36
2023-04-14T02:02:39.794Z,66.89
2023-04-14T02:05:07.476Z,66.95
2023-04-14T02:07:35.185Z,67.26
2023-04-14T02:10:03.252Z,67.22
2023-04-14T02:12:30.830Z,66.69
2023-04-14T02:14:58.433Z,67.16
2023-04-14T02:17:26.103Z,67.34
2023-04-14T02:19:53.917Z,67.12
2023-04-14T02:22:21.878Z,66.91
2023-04-14T02:24:49.742Z,66.71
2023-04-14T02:27:17.412Z,66.54
2023-04-14T02:29:45.014Z,66.61
2023-04-14T02:32:12.831Z,67.06
2023-04-14T02:34:40.791Z,67.02
2023-04-14T02:37:08.411Z,66.92
2023-04-14T02:39:36.866Z,66.66
2023-04-14T02:42:08.144Z,66.55
2023-04-14T02:44:35.987Z,66.79
2023-04-14T02:47:04.408Z,66.36
2023-04-14T02:49:31.965Z,66.73
2023-04-14T02:51:59.588Z,66.81
2023-04-14T02:54:27.226Z,67.26
2023-04-14T02:56:55.070Z,66.81
2023-04-14T02:59:23.189Z,66.71
2023-04-14T03:01:50.910Z,67.07
2023-04-14T03:04:18.612Z,67.48
2023-04-14T03:06:46.309Z,67.40
2023-04-14T03:09:15.091Z,67.59
2023-04-14T03:11:43.045Z,67.86
2023-04-14T03:14:10.683Z,68.11
2023-04-14T03:16:39.548Z,68.04
2023-04-14T03:19:08.052Z,68.04
2023-04-14T03:21:35.720Z,68.35
2023-04-14T03:24:03.318Z,68.60
2023-04-14T03:26:31.144Z,68.43
2023-04-14T03:28:59.111Z,68.63
2023-04-14T03:31:26.884Z,68.57
2023-04-14T03:33:56.563Z,69.37
2023-04-14T03:36:24.531Z,69.58
2023-04-14T03:38:55.447Z,69.76
2023-04-14T03:41:23.006Z,69.40
2023-04-14T03:43:52.307Z,69.47
2023-04-14T03:46:20.157Z,69.79
2023-04-14T03:48:49.033Z,70.03
2023-04-14T03:51:17.182Z,69.77
2023-04-14T03:53:44.787Z,69.63
2023-04-14T03:56:13.536Z,69.53
2023-04-14T03:58:41.243Z,69.48
2023-04-14T04:01:09.158Z,70.13
2023-04-14T04:03:38.660Z,70.03
2023-04-14T04:06:06.532Z,69.91
2023-04-14T04:08:34.208Z,69.50
2023-04-14T04:11:01.837Z,69.70
2023-04-14T04:13:30.134Z,69.96
2023-04-14T04:15:57.716Z,69.96
2023-04-14T04:18:25.310Z,70.18
2023-04-14T04:20:53.007Z,69.92
2023-04-14T04:23:20.834Z,70.47
2023-04-14T04:25:48.538Z,69.91
2023-04-14T04:28:16.204Z,70.34
2023-04-14T04:30:43.793Z,70.83
2023-04-14T04:33:11.428Z,70.33
2023-04-14T04:35:41.285Z,70.18
2023-04-14T04:38:11.742Z,70.61
2023-04-14T04:40:39.601Z,70.38
2023-04-14T04:43:07.199Z,70.62
2023-04-14T04:45:36.610Z,70.18
2023-04-14T04:48:04.797Z,69.89
2023-04-14T04:50:32.902Z,70.75
2023-04-14T04:53:00.753Z,70.57
2023-04-14T04:55:28.364Z,70.07
2023-04-14T04:57:56.445Z,69.86
2023-04-14T05:00:26.234Z,70.29
2023-04-14T05:02:54.301Z,70.41
2023-04-14T05:05:22.029Z,70.05
2023-04-14T05:07:49.613Z,69.94
2023-04-14T05:10:17.247Z,69.87
2023-04-14T05:12:45.061Z,70.42
2023-04-14T05:15:13.022Z,70.17
2023-04-14T05:17:40.779Z,70.18
2023-04-14T05:20:09.047Z,69.63
2023-04-14T05:22:36.621Z,69.28
2023-04-14T05:25:04.293Z,69.28
2023-04-14T05:27:32.148Z,68.96
2023-04-14T05:29:59.733Z,68.90
2023-04-14T05:32:29.226Z,69.71
2023-04-14T05:34:57.988Z,69.29
2023-04-14T05:37:25.743Z,69.09
2023-04-14T05:39:53.748Z,68.50
2023-04-14T05:42:24.559Z,68.12
2023-04-14T05:44:52.141Z,67.77
2023-04-14T05:47:19.784Z,68.26
2023-04-14T05:49:47.778Z,68.02
2023-04-14T05:52:15.768Z,67.33
2023-04-14T05:54:43.489Z,67.67
2023-04-14T05:57:11.345Z,67.29
2023-04-14T05:59:39.022Z,67.13
2023-04-14T06:02:07.533Z,66.76
2023-04-14T06:04:36.539Z,66.49
2023-04-14T06:07:04.347Z,67.00
2023-04-14T06:09:32.291Z,66.61
2023-04-14T06:12:00.064Z,66.36
2023-04-14T06:14:27.758Z,66.36
2023-04-14T06:16:55.837Z,65.65
2023-04-14T06:19:23.541Z,65.79
2023-04-14T06:21:52.025Z,65.23
2023-04-14T06:24:19.776Z,65.12
2023-04-14T06:26:48.495Z,64.63
2023-04-14T06:29:16.667Z,64.91
2023-04-14T06:31:44.430Z,65.01
2023-04-14T06:34:12.430Z,64.76
2023-04-14T06:36:40.120Z,64.77
2023-04-14T06:39:07.851Z,64.82
2023-04-14T06:41:35.875Z,64.83
2023-04-14T06:44:03.576Z,64.33
2023-04-14T06:46:31.414Z,64.57
2023-04-14T06:48:59.864Z,63.96
2023-04-14T06:51:28.063Z,64.05
2023-04-14T06:53:56.110Z,63.89
2023-04-14T06:56:24.019Z,63.19
2023-04-14T06:58:51.834Z,63.62
2023-04-14T07:01:19.738Z,63.08
2023-04-14T07:03:47.607Z,63.09
2023-04-14T07:06:17.502Z,63.23
2023-04-14T07:08:46.890Z,62.99
2023-04-14T07:11:15.086Z,62.58
2023-04-14T07:13:42.834Z,62.39
2023-04-14T07:16:10.729Z,62.47
2023-04-14T07:18:38.913Z,62.21
2023-04-14T07:21:06.617Z,61.65
2023-04-14T07:23:34.682Z,61.84
2023-04-14T07:26:02.379Z,62.00
2023-04-14T07:28:30.268Z,61.61
2023-04-14T07:30:58.553Z,61.32
2023-04-14T07:33:27.310Z,60.85
2023-04-14T07:36:02.998Z,60.69
2023-04-14T07:38:31.692Z,60.87
2023-04-14T07:40:59.407Z,60.59
2023-04-14T07:43:27.527Z,60.52
2023-04-14T07:45:55.316Z,60.22
2023-04-14T07:48:23.124Z,59.76
2023-04-14T07:50:50.969Z,59.67
2023-04-14T07:53:19.030Z,60.31
2023-04-14T07:55:46.810Z,60.16
2023-04-14T07:58:15.762Z,59.75
2023-04-14T08:00:43.754Z,59.67
2023-04-14T08:03:11.697Z,59.55
2023-04-14T08:05:40.115Z,58.86
2023-04-14T08:08:07.913Z,58.88
2023-04-14T08:10:36.047Z,58.62
2023-04-14T08:13:04.097Z,58.85
2023-04-14T08:15:34.174Z,58.89
2023-04-14T08:18:02.565Z,58.60
2023-04-14T08:20:30.399Z,58.34
2023-04-14T08:22:58.220Z,58.81
2023-04-14T08:25:26.030Z,57.76
2023-04-14T08:27:54.145Z,57.88
2023-04-14T08:30:22.750Z,58.09
2023-04-14T08:32:50.626Z,57.40
2023-04-14T08:35:39.630Z,57.42
2023-04-14T08:38:06.467Z,56.99
2023-04-14T08:40:34.653Z,57.17
2023-04-14T08:43:02.451Z,56.80
2023-04-14T08:45:30.468Z,56.64
2023-04-14T08:47:58.209Z,56.58
2023-04-14T08:50:26.354Z,56.61
2023-04-14T08:52:54.185Z,56.13
2023-04-14T08:55:21.936Z,55.65
2023-04-14T08:57:50.131Z,55.33
2023-04-14T09:00:18.785Z,55.38
2023-04-14T09:02:47.487Z,54.82
2023-04-14T09:05:15.659Z,54.77
2023-04-14T09:07:44.406Z,54.50
2023-04-14T09:10:12.367Z,53.89
2023-04-14T09:12:41.839Z,53.51
2023-04-14T09:15:10.327Z,53.18
2023-04-14T09:17:38.316Z,52.78
2023-04-14T09:20:38.750Z,52.60
2023-04-14T09:22:54.309Z,52.29
2023-04-14T09:25:22.406Z,51.99
2023-04-14T09:27:50.130Z,51.52
2023-04-14T09:30:18.261Z,51.35
2023-04-14T09:32:46.246Z,51.75
2023-04-14T09:35:15.035Z,51.38
2023-04-14T09:37:43.301Z,50.88
2023-04-14T09:40:11.782Z,51.14
2023-04-14T09:42:39.942Z,50.61
2023-04-14T09:45:08.585Z,50.71
2023-04-14T09:47:36.345Z,50.90
2023-04-14T09:50:04.739Z,50.67
2023-04-14T09:52:32.704Z,50.70
2023-04-14T09:55:00.696Z,50.68
2023-04-14T09:57:28.481Z,49.66
2023-04-14T09:59:56.263Z,48.89
2023-04-14T10:02:24.583Z,48.23
2023-04-14T10:04:53.078Z,47.16
2023-04-14T10:07:21.220Z,46.76
2023-04-14T10:09:49.051Z,45.04
2023-04-14T10:12:18.752Z,45.20
2023-04-14T10:14:46.701Z,44.53
2023-04-14T10:17:15.459Z,44.46
2023-04-14T10:19:43.388Z,43.10
2023-04-14T10:22:11.370Z,42.30
2023-04-14T10:24:39.733Z,42.39
2023-04-14T10:27:07.847Z,41.59
2023-04-14T10:29:36.081Z,41.51
2023-04-14T10:32:04.102Z,40.80
2023-04-14T10:34:31.951Z,40.46
2023-04-14T10:36:59.897Z,40.29
2023-04-14T10:39:27.786Z,39.78
2023-04-14T10:41:55.940Z,39.18
2023-04-14T10:44:23.907Z,38.94
2023-04-14T10:46:52.496Z,38.30
2023-04-14T10:49:20.493Z,38.20
2023-04-14T10:51:50.006Z,39.22
2023-04-14T10:54:18.843Z,41.91
2023-04-14T10:56:46.721Z,44.86
2023-04-14T10:59:17.805Z,46.31
2023-04-14T11:01:46.876Z,47.92
2023-04-14T11:04:15.143Z,48.57
2023-04-14T11:06:43.454Z,48.08
2023-04-14T11:09:11.619Z,45.52
2023-04-14T11:11:39.478Z,43.83
2023-04-14T11:14:07.840Z,43.34
2023-04-14T11:16:38.661Z,41.75
2023-04-14T11:19:08.460Z,43.28
2023-04-14T11:21:36.390Z,44.76
2023-04-14T11:24:04.118Z,45.41
2023-04-14T11:26:32.029Z,43.85
2023-04-14T11:29:02.032Z,44.47
2023-04-14T11:31:30.961Z,45.54
2023-04-14T11:33:59.045Z,46.80
2023-04-14T11:36:26.935Z,48.31
2023-04-14T11:38:54.714Z,49.10
2023-04-14T11:41:23.006Z,48.27
2023-04-14T11:43:51.568Z,44.98
2023-04-14T11:46:19.496Z,43.35
2023-04-14T11:48:47.545Z,42.02
2023-04-14T11:51:16.112Z,40.51
2023-04-14T11:53:44.397Z,39.76
2023-04-14T11:56:13.864Z,39.11
2023-04-14T11:58:41.715Z,41.10
2023-04-14T12:01:10.871Z,42.87
2023-04-14T12:03:39.642Z,43.83
2023-04-14T12:06:08.704Z,45.74
2023-04-14T12:08:37.263Z,45.37
2023-04-14T12:11:05.153Z,46.36
2023-04-14T12:13:33.442Z,46.06
2023-04-14T12:16:01.490Z,46.59
2023-04-14T12:18:29.536Z,46.93
2023-04-14T12:20:58.231Z,48.00
2023-04-14T12:23:25.973Z,48.74
2023-04-14T12:25:53.745Z,49.01
2023-04-14T12:28:21.781Z,49.12
2023-04-14T12:30:49.871Z,48.82
2023-04-14T12:33:17.774Z,47.21
2023-04-14T12:35:46.216Z,44.08
2023-04-14T12:38:14.832Z,41.69
2023-04-14T12:40:42.798Z,40.95
2023-04-14T12:43:10.910Z,42.00
2023-04-14T12:45:39.279Z,42.49
2023-04-14T12:48:07.257Z,43.64
2023-04-14T12:50:35.168Z,43.96
2023-04-14T12:53:03.677Z,44.46
2023-04-14T12:55:31.759Z,45.00
2023-04-14T12:58:01.504Z,44.25
2023-04-14T13:00:29.322Z,44.50
2023-04-14T13:02:57.417Z,44.46
2023-04-14T13:05:25.504Z,45.06
2023-04-14T13:07:53.929Z,45.19
2023-04-14T13:10:22.018Z,45.94
2023-04-14T13:12:50.169Z,46.72
2023-04-14T13:15:31.111Z,47.59
2023-04-14T13:18:07.482Z,47.89
2023-04-14T13:20:35.438Z,48.40
2023-04-14T13:23:03.271Z,48.79
2023-04-14T13:25:31.492Z,48.93
2023-04-14T13:27:59.291Z,48.60
2023-04-14T13:30:27.309Z,49.18
2023-04-14T13:32:58.682Z,49.28
2023-04-14T13:35:26.769Z,49.21
2023-04-14T13:37:57.778Z,49.18
2023-04-14T13:40:26.323Z,49.59
2023-04-14T13:42:54.472Z,49.33
2023-04-14T13:45:22.824Z,49.64
2023-04-14T13:47:50.694Z,49.47
2023-04-14T13:50:19.107Z,49.55
2023-04-14T13:52:46.976Z,49.27
2023-04-14T13:55:14.887Z,48.22
2023-04-14T13:57:43.096Z,47.21
2023-04-14T14:00:10.914Z,46.22
2023-04-14T14:02:39.920Z,44.96
2023-04-14T14:05:08.145Z,44.43
2023-04-14T14:07:36.025Z,44.47
2023-04-14T14:10:04.123Z,44.40
2023-04-14T14:12:32.471Z,44.15
2023-04-14T14:15:00.254Z,44.49
2023-04-14T14:17:28.345Z,44.82
2023-04-14T14:19:56.535Z,44.92
2023-04-14T14:22:24.742Z,44.79
2023-04-14T14:24:55.072Z,44.53
2023-04-14T14:27:26.497Z,43.69
2023-04-14T14:29:54.328Z,43.24
2023-04-14T14:32:22.215Z,42.42
2023-04-14T14:34:50.577Z,42.58
2023-04-14T14:37:19.070Z,41.68
2023-04-14T14:39:46.897Z,41.11
2023-04-14T14:42:14.621Z,40.96
2023-04-14T14:44:42.412Z,40.39
2023-04-14T14:47:11.080Z,40.00
2023-04-14T14:49:43.338Z,39.83
2023-04-14T14:52:17.081Z,39.52
2023-04-14T14:54:45.458Z,38.80
2023-04-14T14:57:13.392Z,39.14
2023-04-14T14:59:42.174Z,38.03
2023-04-14T15:02:10.239Z,37.61
2023-04-14T15:04:38.209Z,37.97
2023-04-14T15:07:06.527Z,38.08
2023-04-14T15:09:34.497Z,39.21
2023-04-14T15:12:02.453Z,39.09
2023-04-14T15:14:30.532Z,39.21
2023-04-14T15:16:58.374Z,39.74
2023-04-14T15:19:26.325Z,40.64
2023-04-14T15:21:54.761Z,40.97
2023-04-14T15:24:22.703Z,42.37
2023-04-14T15:26:50.564Z,43.51
2023-04-14T15:29:19.775Z,44.84
2023-04-14T15:31:47.573Z,46.20
2023-04-14T15:34:16.001Z,46.93
2023-04-14T15:36:43.904Z,47.24
2023-04-14T15:39:11.742Z,48.24
2023-04-14T15:41:39.493Z,48.56
2023-04-14T15:44:07.816Z,48.91
2023-04-14T15:46:35.841Z,49.45
2023-04-14T15:49:03.658Z,49.15
2023-04-14T15:51:32.268Z,49.59
2023-04-14T15:54:00.424Z,49.80
2023-04-14T15:56:28.857Z,50.20
2023-04-14T15:58:56.854Z,50.16
2023-04-14T16:01:24.787Z,50.34
2023-04-14T16:03:53.113Z,51.09
2023-04-14T16:06:20.963Z,51.06
2023-04-14T16:08:49.299Z,51.88
2023-04-14T16:11:18.028Z,52.43
2023-04-14T16:13:46.395Z,53.02
2023-04-14T16:16:14.634Z,53.72
2023-04-14T16:18:42.588Z,55.57
2023-04-14T16:21:10.918Z,56.46
2023-04-14T16:23:39.081Z,57.63
2023-04-14T16:26:07.041Z,57.44
2023-04-14T16:28:35.148Z,57.45
2023-04-14T16:31:03.094Z,57.57
2023-04-14T16:33:31.944Z,57.29
2023-04-14T16:36:00.275Z,57.97
2023-04-14T16:38:28.414Z,57.63
2023-04-14T16:40:57.614Z,57.45
2023-04-14T16:43:26.506Z,57.65
2023-04-14T16:45:54.557Z,57.95
2023-04-14T16:48:23.068Z,57.95
2023-04-14T16:50:50.893Z,58.34
2023-04-14T16:53:19.329Z,57.44
2023-04-14T16:55:47.095Z,57.99
2023-04-14T16:58:16.088Z,58.26
2023-04-14T17:00:44.560Z,58.17
2023-04-14T17:03:12.733Z,58.10
2023-04-14T17:05:41.029Z,57.97
2023-04-14T17:08:08.813Z,58.14
2023-04-14T17:10:37.465Z,58.11
2023-04-14T17:13:05.895Z,57.85
2023-04-14T17:15:33.917Z,57.80
2023-04-14T17:18:01.747Z,57.78
2023-04-14T17:20:30.758Z,57.75
2023-04-14T17:22:58.967Z,58.16
2023-04-14T17:25:27.159Z,57.59
2023-04-14T17:27:55.203Z,57.99
2023-04-14T17:30:23.097Z,57.84
2023-04-14T17:32:51.100Z,57.62
2023-04-14T17:35:19.184Z,57.65
2023-04-14T17:37:47.508Z,57.81
2023-04-14T17:40:16.134Z,57.84
2023-04-14T17:42:44.374Z,58.32
2023-04-14T17:45:12.303Z,58.60
2023-04-14T17:47:40.707Z,58.66
2023-04-14T17:50:10.113Z,58.70
2023-04-14T17:52:38.140Z,59.06
2023-04-14T17:55:07.361Z,59.70
2023-04-14T17:57:35.371Z,59.06
2023-04-14T18:00:04.730Z,59.21
2023-04-14T18:02:35.158Z,60.07
2023-04-14T18:05:04.066Z,59.54
2023-04-14T18:07:32.310Z,59.81
2023-04-14T18:10:00.151Z,59.88
2023-04-14T18:12:28.415Z,59.74
2023-04-14T18:14:57.066Z,60.18
2023-04-14T18:17:25.089Z,59.96
2023-04-14T18:19:52.964Z,60.05
2023-04-14T18:22:21.047Z,60.71
2023-04-14T18:24:49.791Z,60.77
2023-04-14T18:29:49.440Z,61.27
2023-04-14T18:32:17.495Z,61.50
2023-04-14T18:34:45.490Z,61.06
2023-04-14T18:37:14.853Z,61.94
2023-04-14T18:39:43.215Z,61.37
2023-04-14T18:42:11.718Z,61.91
2023-04-14T18:44:39.602Z,61.98
2023-04-14T18:47:07.423Z,61.90
2023-04-14T18:49:36.820Z,62.66
2023-04-14T18:52:06.127Z,62.17
2023-04-14T18:54:34.065Z,62.57
2023-04-14T18:57:03.605Z,62.16
2023-04-14T18:59:31.514Z,62.49
2023-04-14T19:01:59.875Z,62.21
2023-04-14T19:04:28.091Z,62.60
2023-04-14T19:06:55.956Z,62.51
2023-04-14T19:09:24.904Z,62.41
2023-04-14T19:11:53.326Z,62.80
2023-04-14T19:14:21.844Z,63.04
2023-04-14T19:16:50.208Z,62.62
2023-04-14T19:19:18.377Z,62.93
2023-04-14T19:21:46.175Z,63.31
2023-04-14T19:24:14.158Z,63.37
2023-04-14T19:26:42.198Z,63.56
2023-04-14T19:29:10.737Z,63.42
2023-04-14T19:31:38.773Z,63.84
2023-04-14T19:34:06.976Z,63.74
2023-04-14T19:36:35.385Z,64.49
2023-04-14T19:39:04.119Z,64.30
2023-04-14T19:41:33.064Z,64.13
2023-04-14T19:44:00.974Z,64.10
2023-04-14T19:46:28.859Z,64.29
2023-04-14T19:48:57.203Z,64.34
2023-04-14T19:51:25.045Z,64.61
2023-04-14T19:53:53.227Z,64.70
2023-04-14T19:56:23.008Z,64.70
2023-04-14T19:58:51.970Z,64.57
2023-04-14T20:01:20.924Z,65.00
2023-04-14T20:04:06.606Z,64.95
2023-04-14T20:06:37.271Z,65.13
2023-04-14T20:09:05.241Z,65.07
2023-04-14T20:11:33.086Z,65.22
2023-04-14T20:14:01.029Z,65.06
2023-04-14T20:16:29.600Z,65.00
2023-04-14T20:18:58.276Z,64.91
2023-04-14T20:21:26.195Z,65.33
2023-04-14T20:23:54.187Z,65.21
2023-04-14T20:26:23.364Z,65.56
2023-04-14T20:28:51.416Z,65.56
2023-04-14T20:31:20.068Z,65.64
2023-04-14T20:33:48.676Z,65.71
2023-04-14T20:36:16.589Z,65.53
2023-04-14T20:38:46.139Z,65.73
2023-04-14T20:41:14.107Z,66.08
2023-04-14T20:43:44.153Z,66.11
2023-04-14T20:46:12.704Z,66.07
2023-04-14T20:48:40.517Z,66.37
2023-04-14T20:51:08.808Z,66.22
2023-04-14T20:53:37.097Z,66.39
2023-04-14T20:56:04.972Z,66.47
2023-04-14T20:58:32.749Z,66.88
2023-04-14T21:01:02.444Z,67.25
2023-04-14T21:03:31.705Z,66.88
2023-04-14T21:05:59.712Z,67.05
2023-04-14T21:08:28.721Z,67.20
2023-04-14T21:11:16.353Z,66.98
2023-04-14T21:15:26.795Z,67.22
2023-04-14T21:16:32.594Z,66.79
2023-04-14T21:19:01.217Z,67.46
2023-04-14T21:21:29.666Z,67.45
2023-04-14T21:23:57.542Z,67.08
2023-04-14T21:26:25.804Z,66.99
2023-04-14T21:28:53.675Z,66.93
2023-04-14T21:31:21.937Z,67.05
2023-04-14T21:33:50.111Z,66.92
2023-04-14T21:36:19.029Z,67.19
2023-04-14T21:38:46.865Z,67.22
2023-04-14T21:41:14.793Z,67.23
2023-04-14T21:43:43.374Z,67.22
2023-04-14T21:46:11.208Z,67.41
2023-04-14T21:48:39.546Z,67.23
2023-04-14T21:51:07.916Z,67.41
2023-04-14T21:53:35.932Z,67.55
2023-04-14T21:56:09.807Z,67.67
2023-04-14T21:58:39.521Z,67.37
2023-04-14T22:01:08.182Z,67.69
2023-04-14T22:03:37.658Z,67.71
2023-04-14T22:06:05.768Z,67.66
2023-04-14T22:08:33.679Z,67.73
2023-04-14T22:11:01.736Z,67.47
2023-04-14T22:13:30.129Z,67.80
2023-04-14T22:15:58.479Z,68.05
2023-04-14T22:18:27.775Z,67.56
2023-04-14T22:20:55.856Z,67.68
2023-04-14T22:23:23.803Z,67.37
2023-04-14T22:25:52.747Z,67.32
2023-04-14T22:28:20.511Z,67.43
2023-04-14T22:30:48.978Z,67.52
2023-04-14T22:33:16.896Z,67.08
2023-04-14T22:35:44.665Z,67.22
2023-04-14T22:38:12.765Z,67.24
2023-04-14T22:40:41.052Z,67.00
2023-04-14T22:43:11.035Z,67.05
2023-04-14T22:45:38.859Z,67.67
2023-04-14T22:48:07.075Z,67.03
2023-04-14T22:50:35.492Z,67.22
2023-04-14T22:53:03.521Z,67.42
2023-04-14T22:55:31.580Z,66.92
2023-04-14T22:57:59.406Z,67.13
2023-04-14T23:00:27.310Z,67.27
2023-04-14T23:02:55.894Z,67.06
2023-04-14T23:05:23.777Z,67.20
2023-04-14T23:07:52.078Z,67.31
2023-04-14T23:10:20.451Z,67.20
2023-04-14T23:12:48.446Z,67.27
2023-04-14T23:15:16.473Z,67.48
2023-04-14T23:17:44.317Z,67.85
2023-04-14T23:20:12.094Z,67.34
2023-04-14T23:22:39.908Z,67.40
2023-04-14T23:25:07.600Z,67.63
2023-04-14T23:27:35.591Z,67.21
2023-04-14T23:30:03.466Z,67.65
2023-04-14T23:32:31.756Z,67.83
2023-04-14T23:34:59.386Z,67.64
2023-04-14T23:37:27.200Z,67.89
2023-04-14T23:39:55.779Z,67.35
2023-04-14T23:42:23.541Z,67.47
2023-04-14T23:44:51.928Z,67.62
2023-04-14T23:47:19.571Z,67.56
2023-04-14T23:49:47.593Z,67.82
2023-04-14T23:52:15.492Z,67.33
2023-04-14T23:54:44.004Z,67.97
2023-04-14T23:57:11.696Z,67.58
2023-04-14T23:59:40.281Z,67.99
